LDSH weather

Hvar Airport
Hvar Island, Split-Dalmatia County, Croatia

Public forecast

Using degrees Celsius for public forecast. Weather courtesy of forecast.io.

Closest aviation weather report (METAR) to Hvar Airport

Closest report is Bol Airport, 6.6 nm (12.2 km) NNE. Retrieved 2020/06/02 08:00 UTC (16 minutes ago):

LDSB 020800Z 35010KT 300V040 CAVOK 19/05 Q1014

Closest aviation forecast (TAF) to Hvar Airport

Closest forecast is Bol Airport, 6.6 nm (12.2 km) NNE. Retrieved 2020/06/02 06:03 UTC (2 hours ago):

TAF TAF LDSB 020601Z 0206/0306 02010KT CAVOK TX26/0213Z TN16/0304Z PROB40 TEMPO 0210/0214 20008KT